Time,TemperatureF,DewpointF,PressureIn,WindDirection,WindDirectionDegrees,WindSpeedMPH,WindSpeedGustMPH,Humidity,HourlyPrecipIn,Conditions,Clouds,dailyrainin,SoftwareType,DateUTC
2013-02-15 00:07:00,23.4,21.0,29.93,South,175,0.0,0.0,90,0.00,,,0.00,weatherlink.com 1.10,2013-02-15 05:07:00,
2013-02-15 00:22:00,23.2,21.0,29.94,South,175,0.0,0.0,91,0.00,,,0.00,weatherlink.com 1.10,2013-02-15 05:22:00,
2013-02-15 00:37:00,22.8,21.0,29.94,South,175,0.0,0.0,91,0.00,,,0.00,weatherlink.com 1.10,2013-02-15 05:37:00,
2013-02-15 00:52:00,23.0,21.0,29.94,South,175,0.0,0.0,92,0.00,,,0.00,weatherlink.com 1.10,2013-02-15 05:52:00,
2013-02-15 01:07:00,23.7,22.0,29.94,South,175,0.0,0.0,92,0.00,,,0.00,weatherlink.com 1.10,2013-02-15 06:07:00,
2013-02-15 01:22:00,26.2,25.0,29.93,South,185,0.0,0.0,93,0.00,,,0.00,weatherlink.com 1.10,2013-02-15 06:22:00,
2013-02-15 01:37:00,26.1,24.0,29.93,WNW,284,3.0,4.0,91,0.00,,,0.00,weatherlink.com 1.10,2013-02-15 06:37:00,
2013-02-15 01:52:00,26.3,24.0,29.93,West,274,0.0,3.0,89,0.00,,,0.00,weatherlink.com 1.10,2013-02-15 06:52:00,
2013-02-15 02:07:00,26.0,23.0,29.93,West,271,0.0,0.0,88,0.00,,,0.00,weatherlink.com 1.10,2013-02-15 07:07:00,
2013-02-15 02:22:00,25.6,23.0,29.93,West,271,0.0,0.0,89,0.00,,,0.00,weatherlink.com 1.10,2013-02-15 07:22:00,
2013-02-15 02:37:00,25.7,23.0,29.93,West,271,0.0,0.0,89,0.00,,,0.00,weatherlink.com 1.10,2013-02-15 07:37:00,
2013-02-15 02:52:00,26.0,23.0,29.93,West,271,0.0,0.0,89,0.00,,,0.00,weatherlink.com 1.10,2013-02-15 07:52:00,
2013-02-15 03:09:00,26.7,24.0,29.93,West,271,0.0,0.0,89,0.00,,,0.00,weatherlink.com 1.10,2013-02-15 08:09:00,
2013-02-15 03:22:00,27.0,24.0,29.93,West,271,0.0,0.0,89,0.00,,,0.00,weatherlink.com 1.10,2013-02-15 08:22:00,
2013-02-15 03:37:00,27.1,24.0,29.92,West,271,0.0,0.0,88,0.00,,,0.00,weatherlink.com 1.10,2013-02-15 08:37:00,
2013-02-15 03:52:00,27.5,24.0,29.92,West,271,1.0,4.0,88,0.00,,,0.00,weatherlink.com 1.10,2013-02-15 08:52:00,
2013-02-15 04:07:00,27.6,24.0,29.93,West,271,1.0,3.0,87,0.00,,,0.00,weatherlink.com 1.10,2013-02-15 09:07:00,
2013-02-15 04:22:00,26.5,23.0,29.93,West,271,0.0,0.0,86,0.00,,,0.00,weatherlink.com 1.10,2013-02-15 09:22:00,
2013-02-15 04:37:00,24.9,22.0,29.93,West,271,0.0,0.0,88,0.00,,,0.00,weatherlink.com 1.10,2013-02-15 09:37:00,
2013-02-15 04:52:00,24.1,21.0,29.93,West,271,0.0,0.0,89,0.00,,,0.00,weatherlink.com 1.10,2013-02-15 09:52:00,
2013-02-15 05:07:00,23.7,21.0,29.93,West,271,0.0,0.0,90,0.00,,,0.00,weatherlink.com 1.10,2013-02-15 10:07:00,
2013-02-15 05:22:00,23.3,21.0,29.92,West,271,0.0,0.0,91,0.00,,,0.00,weatherlink.com 1.10,2013-02-15 10:22:00,
2013-02-15 05:37:00,23.1,21.0,29.92,West,271,0.0,0.0,91,0.00,,,0.00,weatherlink.com 1.10,2013-02-15 10:37:00,
2013-02-15 05:52:00,23.3,21.0,29.92,West,271,0.0,0.0,92,0.00,,,0.00,weatherlink.com 1.10,2013-02-15 10:52:00,
2013-02-15 06:07:00,23.3,21.0,29.92,West,271,0.0,0.0,92,0.00,,,0.00,weatherlink.com 1.10,2013-02-15 11:07:00,
2013-02-15 06:23:00,23.1,21.0,29.92,West,271,0.0,0.0,92,0.00,,,0.00,weatherlink.com 1.10,2013-02-15 11:23:00,
2013-02-15 06:37:00,22.9,21.0,29.92,West,271,0.0,0.0,92,0.00,,,0.00,weatherlink.com 1.10,2013-02-15 11:37:00,
2013-02-15 06:52:00,23.1,21.0,29.92,West,271,0.0,0.0,92,0.00,,,0.00,weatherlink.com 1.10,2013-02-15 11:52:00,
2013-02-15 07:08:00,23.5,22.0,29.92,West,271,0.0,0.0,92,0.00,,,0.00,weatherlink.com 1.10,2013-02-15 12:08:00,
2013-02-15 07:22:00,24.7,23.0,29.92,West,269,0.0,0.0,93,0.00,,,0.00,weatherlink.com 1.10,2013-02-15 12:22:00,
2013-02-15 07:37:00,26.9,25.0,29.92,West,269,0.0,0.0,92,0.00,,,0.00,weatherlink.com 1.10,2013-02-15 12:37:00,
2013-02-15 07:52:00,28.1,26.0,29.91,West,269,0.0,0.0,91,0.00,,,0.00,weatherlink.com 1.10,2013-02-15 12:52:00,
2013-02-15 08:07:00,28.7,26.0,29.92,West,269,0.0,0.0,91,0.00,,,0.00,weatherlink.com 1.10,2013-02-15 13:07:00,
2013-02-15 08:23:00,29.6,27.0,29.92,West,269,0.0,0.0,89,0.00,,,0.00,weatherlink.com 1.10,2013-02-15 13:23:00,
2013-02-15 08:38:00,30.4,27.0,29.92,West,269,0.0,0.0,88,0.00,,,0.00,weatherlink.com 1.10,2013-02-15 13:38:00,
2013-02-15 08:53:00,30.7,28.0,29.91,West,269,0.0,0.0,89,0.00,,,0.00,weatherlink.com 1.10,2013-02-15 13:53:00,
2013-02-15 09:08:00,31.4,29.0,29.91,West,269,0.0,0.0,90,0.00,,,0.00,weatherlink.com 1.10,2013-02-15 14:08:00,
2013-02-15 09:23:00,32.8,31.0,29.90,West,269,0.0,0.0,91,0.00,,,0.00,weatherlink.com 1.10,2013-02-15 14:23:00,
2013-02-15 09:38:00,41.1,36.0,29.91,SE,134,0.0,8.0,81,0.00,,,0.00,weatherlink.com 1.10,2013-02-15 14:38:00,
2013-02-15 09:53:00,41.1,35.0,29.92,SSE,168,0.0,7.0,78,0.00,,,0.00,weatherlink.com 1.10,2013-02-15 14:53:00,
2013-02-15 10:08:00,41.0,35.0,29.92,NW,321,0.0,8.0,78,0.00,,,0.00,weatherlink.com 1.10,2013-02-15 15:08:00,
2013-02-15 10:23:00,41.3,35.0,29.92,North,355,2.0,11.0,77,0.00,,,0.00,weatherlink.com 1.10,2013-02-15 15:23:00,
2013-02-15 10:38:00,40.8,35.0,29.92,SSE,153,0.0,10.0,79,0.00,,,0.00,weatherlink.com 1.10,2013-02-15 15:38:00,
2013-02-15 10:53:00,40.6,35.0,29.92,ENE,57,4.0,12.0,80,0.00,,,0.00,weatherlink.com 1.10,2013-02-15 15:53:00,
2013-02-15 11:08:00,40.7,35.0,29.91,SE,135,0.0,8.0,80,0.00,,,0.00,weatherlink.com 1.10,2013-02-15 16:08:00,
2013-02-15 11:23:00,41.1,35.0,29.91,ESE,117,4.0,11.0,80,0.00,,,0.00,weatherlink.com 1.10,2013-02-15 16:23:00,
2013-02-15 11:38:00,41.2,36.0,29.90,ESE,115,0.0,9.0,80,0.00,,,0.00,weatherlink.com 1.10,2013-02-15 16:38:00,
2013-02-15 11:53:00,41.3,36.0,29.89,ENE,76,1.0,6.0,81,0.00,,,0.00,weatherlink.com 1.10,2013-02-15 16:53:00,
2013-02-15 12:08:00,42.4,37.0,29.89,SSE,152,0.0,11.0,81,0.00,,,0.00,weatherlink.com 1.10,2013-02-15 17:08:00,
2013-02-15 12:23:00,42.5,37.0,29.88,NNE,25,0.0,11.0,80,0.00,,,0.00,weatherlink.com 1.10,2013-02-15 17:23:00,
2013-02-15 12:38:00,42.3,37.0,29.88,SE,146,0.0,11.0,81,0.00,,,0.00,weatherlink.com 1.10,2013-02-15 17:38:00,
2013-02-15 12:53:00,43.4,37.0,29.87,ESE,109,7.0,13.0,79,0.00,,,0.00,weatherlink.com 1.10,2013-02-15 17:53:00,
2013-02-15 13:38:00,42.5,37.0,29.86,SSE,150,0.0,10.0,81,0.00,,,0.00,weatherlink.com 1.10,2013-02-15 18:38:00,
2013-02-15 13:54:00,42.6,37.0,29.86,East,88,3.0,16.0,81,0.00,,,0.00,weatherlink.com 1.10,2013-02-15 18:54:00,
2013-02-15 14:08:00,43.2,37.0,29.85,NNE,30,0.0,8.0,79,0.00,,,0.00,weatherlink.com 1.10,2013-02-15 19:08:00,
2013-02-15 14:23:00,43.8,38.0,29.86,SSE,161,1.0,15.0,79,0.00,,,0.00,weatherlink.com 1.10,2013-02-15 19:23:00,
2013-02-15 14:39:00,43.6,37.0,29.86,ESE,123,4.0,13.0,78,0.00,,,0.00,weatherlink.com 1.10,2013-02-15 19:39:00,
2013-02-15 14:54:00,42.7,37.0,29.86,ESE,123,5.0,14.0,79,0.00,,,0.00,weatherlink.com 1.10,2013-02-15 19:54:00,
2013-02-15 15:08:00,42.3,37.0,29.86,ESE,120,17.0,17.0,81,0.00,,,0.00,weatherlink.com 1.10,2013-02-15 20:08:00,
2013-02-15 15:39:00,41.8,37.0,29.86,ESE,104,0.0,11.0,82,0.00,,,0.00,weatherlink.com 1.10,2013-02-15 20:39:00,
2013-02-15 15:54:00,41.6,37.0,29.86,SE,138,0.0,8.0,83,0.00,,,0.00,weatherlink.com 1.10,2013-02-15 20:54:00,
2013-02-15 16:09:00,41.3,37.0,29.86,SE,132,1.0,8.0,84,0.00,,,0.00,weatherlink.com 1.10,2013-02-15 21:09:00,
2013-02-15 16:24:00,41.1,37.0,29.86,ENE,64,0.0,7.0,85,0.00,,,0.00,weatherlink.com 1.10,2013-02-15 21:24:00,
2013-02-15 16:39:00,40.8,37.0,29.86,SSE,150,0.0,3.0,86,0.00,,,0.00,weatherlink.com 1.10,2013-02-15 21:39:00,
2013-02-15 16:54:00,40.3,37.0,29.86,SE,134,0.0,8.0,87,0.00,,,0.00,weatherlink.com 1.10,2013-02-15 21:54:00,
2013-02-15 17:09:00,40.2,37.0,29.87,East,96,0.0,6.0,87,0.00,,,0.00,weatherlink.com 1.10,2013-02-15 22:09:00,
2013-02-15 17:24:00,40.0,37.0,29.87,ESE,117,0.0,2.0,88,0.00,,,0.00,weatherlink.com 1.10,2013-02-15 22:24:00,
2013-02-15 17:39:00,39.9,37.0,29.87,ESE,122,0.0,2.0,89,0.00,,,0.00,weatherlink.com 1.10,2013-02-15 22:39:00,
2013-02-15 17:54:00,39.5,37.0,29.87,SE,140,0.0,3.0,89,0.00,,,0.00,weatherlink.com 1.10,2013-02-15 22:54:00,
2013-02-15 18:09:00,39.0,36.0,29.87,North,355,0.0,3.0,90,0.00,,,0.00,weatherlink.com 1.10,2013-02-15 23:09:00,
2013-02-15 18:24:00,38.6,36.0,29.87,ESE,107,0.0,0.0,91,0.00,,,0.00,weatherlink.com 1.10,2013-02-15 23:24:00,
2013-02-15 18:39:00,37.8,36.0,29.86,SSE,159,0.0,0.0,91,0.00,,,0.00,weatherlink.com 1.10,2013-02-15 23:39:00,
2013-02-15 18:54:00,37.5,35.0,29.87,SSE,159,0.0,0.0,92,0.00,,,0.00,weatherlink.com 1.10,2013-02-15 23:54:00,
2013-02-15 19:09:00,37.4,35.0,29.87,SE,133,0.0,0.0,92,0.00,,,0.00,weatherlink.com 1.10,2013-02-16 00:09:00,
2013-02-15 19:24:00,36.2,34.0,29.87,SE,133,0.0,0.0,93,0.00,,,0.00,weatherlink.com 1.10,2013-02-16 00:24:00,
2013-02-15 19:39:00,34.8,33.0,29.86,SE,133,0.0,0.0,93,0.00,,,0.00,weatherlink.com 1.10,2013-02-16 00:39:00,
2013-02-15 19:54:00,33.9,32.0,29.87,SE,133,0.0,0.0,94,0.00,,,0.00,weatherlink.com 1.10,2013-02-16 00:54:00,
2013-02-15 20:24:00,35.1,34.0,29.87,ESE,116,0.0,1.0,95,0.00,,,0.00,weatherlink.com 1.10,2013-02-16 01:24:00,
2013-02-15 20:39:00,35.6,34.0,29.87,ESE,117,0.0,0.0,95,0.00,,,0.00,weatherlink.com 1.10,2013-02-16 01:39:00,
2013-02-15 20:54:00,35.7,35.0,29.88,ESE,116,0.0,0.0,96,0.00,,,0.00,weatherlink.com 1.10,2013-02-16 01:54:00,
2013-02-15 21:09:00,35.9,35.0,29.87,ESE,117,0.0,0.0,96,0.00,,,0.00,weatherlink.com 1.10,2013-02-16 02:09:00,
2013-02-15 21:24:00,36.0,35.0,29.87,ESE,117,0.0,0.0,96,0.00,,,0.00,weatherlink.com 1.10,2013-02-16 02:24:00,
2013-02-15 21:39:00,34.9,34.0,29.87,ESE,116,0.0,0.0,96,0.00,,,0.00,weatherlink.com 1.10,2013-02-16 02:39:00,
2013-02-15 21:54:00,34.6,34.0,29.87,ESE,117,0.0,0.0,96,0.00,,,0.00,weatherlink.com 1.10,2013-02-16 02:54:00,
2013-02-15 22:09:00,34.0,33.0,29.86,ESE,116,0.0,0.0,96,0.00,,,0.00,weatherlink.com 1.10,2013-02-16 03:09:00,
2013-02-15 22:24:00,34.8,34.0,29.86,ESE,117,0.0,0.0,96,0.00,,,0.00,weatherlink.com 1.10,2013-02-16 03:24:00,
2013-02-15 22:39:00,34.2,33.0,29.87,ESE,117,0.0,0.0,96,0.00,,,0.00,weatherlink.com 1.10,2013-02-16 03:39:00,
2013-02-15 22:54:00,34.3,33.0,29.87,ESE,117,0.0,0.0,96,0.00,,,0.00,weatherlink.com 1.10,2013-02-16 03:54:00,
2013-02-15 23:09:00,34.4,34.0,29.86,ESE,116,0.0,0.0,97,0.00,,,0.00,weatherlink.com 1.10,2013-02-16 04:09:00,
2013-02-15 23:24:00,35.7,35.0,29.86,ESE,117,0.0,0.0,97,0.00,,,0.00,weatherlink.com 1.10,2013-02-16 04:24:00,
2013-02-15 23:39:00,36.5,36.0,29.86,East,100,0.0,1.0,97,0.00,,,0.00,weatherlink.com 1.10,2013-02-16 04:39:00,
2013-02-15 23:54:00,35.7,35.0,29.86,East,100,0.0,0.0,97,0.00,,,0.00,weatherlink.com 1.10,2013-02-16 04:54:00,